createdAt,value
2018-07-09T00:01:00.540Z,3.13
2018-07-09T00:03:28.830Z,2.73
2018-07-09T00:05:57.448Z,3.10
2018-07-09T00:08:25.930Z,3.37
2018-07-09T00:11:02.194Z,3.10
2018-07-09T00:13:31.317Z,3.20
2018-07-09T00:15:59.777Z,3.33
2018-07-09T00:18:28.171Z,3.57
2018-07-09T00:20:56.468Z,3.10
2018-07-09T00:23:24.787Z,7.03
2018-07-09T00:25:53.801Z,4.30
2018-07-09T00:28:22.815Z,3.57
2018-07-09T00:30:51.162Z,5.53
2018-07-09T00:33:20.063Z,4.17
2018-07-09T00:35:48.716Z,3.60
2018-07-09T00:38:17.571Z,3.80
2018-07-09T00:40:45.910Z,3.57
2018-07-09T00:43:14.259Z,3.70
2018-07-09T00:45:42.573Z,3.47
2018-07-09T00:48:10.913Z,3.07
2018-07-09T00:50:39.226Z,3.10
2018-07-09T00:53:07.510Z,3.27
2018-07-09T00:55:36.610Z,3.33
2018-07-09T00:58:04.971Z,3.50
2018-07-09T01:00:33.303Z,3.77
2018-07-09T01:03:01.370Z,3.80
2018-07-09T01:05:29.794Z,3.30
2018-07-09T01:07:58.190Z,3.50
2018-07-09T01:10:26.512Z,3.07
2018-07-09T01:12:54.856Z,3.17
2018-07-09T01:15:23.192Z,2.67
2018-07-09T01:17:51.503Z,2.90
2018-07-09T01:20:19.917Z,3.13
2018-07-09T01:22:48.650Z,2.93
2018-07-09T01:25:17.254Z,2.93
2018-07-09T01:27:45.690Z,2.73
2018-07-09T01:30:16.292Z,3.10
2018-07-09T01:32:44.712Z,2.83
2018-07-09T01:35:14.191Z,2.97
2018-07-09T01:37:43.009Z,2.70
2018-07-09T01:40:11.572Z,2.97
2018-07-09T01:42:39.646Z,2.87
2018-07-09T01:45:08.027Z,3.03
2018-07-09T01:47:36.406Z,2.90
2018-07-09T01:50:04.839Z,3.03
2018-07-09T01:52:33.440Z,3.13
2018-07-09T01:55:02.042Z,2.93
2018-07-09T01:57:30.788Z,2.60
2018-07-09T01:59:59.426Z,3.00
2018-07-09T02:02:28.074Z,3.17
2018-07-09T02:04:56.674Z,2.80
2018-07-09T02:07:25.367Z,2.97
2018-07-09T02:09:53.707Z,2.90
2018-07-09T02:12:21.773Z,2.60
2018-07-09T02:14:50.111Z,2.83
2018-07-09T02:17:18.846Z,2.70
2018-07-09T02:19:47.249Z,3.00
2018-07-09T02:22:15.852Z,2.30
2018-07-09T02:24:43.926Z,2.77
2018-07-09T02:27:12.355Z,2.57
2018-07-09T02:29:40.718Z,2.90
2018-07-09T02:32:09.088Z,2.50
2018-07-09T02:34:37.519Z,2.50
2018-07-09T02:37:05.915Z,2.20
2018-07-09T02:39:34.265Z,2.47
2018-07-09T02:42:02.612Z,2.77
2018-07-09T02:44:30.943Z,2.50
2018-07-09T02:46:59.266Z,2.43
2018-07-09T02:49:27.767Z,2.40
2018-07-09T02:51:56.110Z,2.57
2018-07-09T02:54:24.451Z,2.43
2018-07-09T02:56:52.776Z,2.50
2018-07-09T02:59:21.128Z,2.43
2018-07-09T03:01:49.538Z,3.00
2018-07-09T03:04:17.863Z,3.43
2018-07-09T03:06:46.237Z,4.17
2018-07-09T03:09:14.894Z,5.03
2018-07-09T03:11:43.229Z,4.70
2018-07-09T03:14:11.535Z,3.93
2018-07-09T03:16:39.968Z,4.40
2018-07-09T03:19:08.372Z,4.50
2018-07-09T03:21:36.672Z,4.80
2018-07-09T03:24:05.029Z,6.07
2018-07-09T03:26:33.386Z,4.87
2018-07-09T03:29:01.971Z,5.57
2018-07-09T03:31:30.066Z,5.27
2018-07-09T03:33:58.402Z,5.70
2018-07-09T03:36:26.778Z,5.07
2018-07-09T03:38:55.108Z,5.27
2018-07-09T03:41:23.451Z,5.10
2018-07-09T03:43:51.775Z,5.40
2018-07-09T03:46:20.119Z,5.30
2018-07-09T03:48:48.450Z,4.80
2018-07-09T03:51:16.750Z,5.20
2018-07-09T03:53:45.133Z,4.50
2018-07-09T03:56:13.275Z,5.53
2018-07-09T03:58:41.567Z,4.60
2018-07-09T04:01:09.927Z,4.47
2018-07-09T04:03:38.286Z,5.07
2018-07-09T04:06:06.735Z,6.90
2018-07-09T04:08:35.085Z,6.93
2018-07-09T04:11:03.554Z,8.27
2018-07-09T04:13:31.922Z,7.83
2018-07-09T04:16:00.283Z,7.90
2018-07-09T04:18:28.657Z,7.07
2018-07-09T04:20:57.311Z,7.63
2018-07-09T04:23:25.650Z,7.10
2018-07-09T04:25:54.011Z,6.87
2018-07-09T04:28:22.539Z,6.83
2018-07-09T04:30:51.004Z,6.63
2018-07-09T04:33:19.656Z,7.00
2018-07-09T04:35:48.180Z,7.07
2018-07-09T04:38:16.511Z,5.80
2018-07-09T04:40:44.826Z,6.23
2018-07-09T04:43:13.235Z,5.93
2018-07-09T04:45:41.587Z,5.33
2018-07-09T04:48:09.939Z,6.00
2018-07-09T04:50:38.370Z,5.53
2018-07-09T04:53:06.812Z,6.03
2018-07-09T04:55:35.307Z,6.07
2018-07-09T04:58:03.687Z,5.87
2018-07-09T05:00:32.065Z,5.00
2018-07-09T05:03:00.252Z,4.93
2018-07-09T05:05:28.932Z,5.00
2018-07-09T05:07:57.590Z,4.93
2018-07-09T05:10:26.036Z,4.90
2018-07-09T05:12:54.601Z,4.60
2018-07-09T05:15:23.012Z,4.53
2018-07-09T05:17:51.359Z,4.60
2018-07-09T05:20:19.747Z,4.97
2018-07-09T05:22:48.063Z,4.53
2018-07-09T05:25:16.446Z,4.20
2018-07-09T05:27:44.776Z,4.33
2018-07-09T05:30:13.143Z,3.97
2018-07-09T05:32:41.477Z,3.67
2018-07-09T05:35:10.085Z,3.73
2018-07-09T05:37:38.491Z,3.70
2018-07-09T05:40:07.380Z,4.20
2018-07-09T05:42:36.356Z,3.73
2018-07-09T05:45:05.212Z,3.60
2018-07-09T05:47:33.991Z,4.03
2018-07-09T05:50:02.384Z,3.83
2018-07-09T05:52:30.774Z,4.10
2018-07-09T05:54:59.386Z,3.80
2018-07-09T05:57:27.590Z,3.77
2018-07-09T05:59:55.959Z,3.63
2018-07-09T06:02:24.280Z,4.13
2018-07-09T06:04:52.617Z,3.53
2018-07-09T06:07:20.966Z,4.13
2018-07-09T06:09:49.312Z,3.37
2018-07-09T06:12:17.721Z,3.60
2018-07-09T06:14:46.036Z,3.77
2018-07-09T06:17:14.367Z,3.67
2018-07-09T06:19:42.753Z,3.23
2018-07-09T06:22:11.072Z,3.63
2018-07-09T06:24:39.398Z,3.10
2018-07-09T06:27:07.499Z,3.67
2018-07-09T06:29:35.882Z,3.90
2018-07-09T06:32:04.249Z,3.30
2018-07-09T06:34:32.672Z,3.20
2018-07-09T06:37:00.996Z,3.20
2018-07-09T06:39:29.353Z,3.97
2018-07-09T06:41:57.687Z,3.50
2018-07-09T06:44:26.045Z,3.30
2018-07-09T06:46:54.391Z,3.17
2018-07-09T06:49:22.880Z,3.67
2018-07-09T06:51:51.234Z,2.97
2018-07-09T06:54:19.591Z,3.33
2018-07-09T06:56:47.943Z,3.20
2018-07-09T06:59:16.259Z,2.90
2018-07-09T07:01:46.413Z,3.33
2018-07-09T07:04:14.767Z,3.07
2018-07-09T07:06:43.103Z,2.97
2018-07-09T07:09:11.535Z,3.40
2018-07-09T07:11:39.787Z,2.70
2018-07-09T07:14:08.134Z,3.10
2018-07-09T07:16:36.480Z,3.40
2018-07-09T07:19:04.822Z,3.70
2018-07-09T07:21:33.146Z,3.17
2018-07-09T07:24:01.212Z,2.60
2018-07-09T07:26:29.689Z,2.87
2018-07-09T07:28:58.024Z,2.97
2018-07-09T07:31:26.368Z,3.10
2018-07-09T07:33:54.740Z,2.80
2018-07-09T07:36:23.086Z,3.10
2018-07-09T07:38:51.577Z,2.80
2018-07-09T07:41:19.858Z,3.10
2018-07-09T07:43:48.175Z,2.60
2018-07-09T07:46:16.680Z,3.00
2018-07-09T07:48:45.016Z,3.20
2018-07-09T07:51:13.334Z,3.00
2018-07-09T07:53:41.637Z,3.07
2018-07-09T07:56:09.695Z,3.17
2018-07-09T07:58:37.983Z,3.50
2018-07-09T08:01:06.405Z,2.83
2018-07-09T08:03:34.882Z,3.00
2018-07-09T08:06:03.230Z,2.87
2018-07-09T08:08:31.548Z,2.83
2018-07-09T08:11:10.909Z,2.90
2018-07-09T08:13:28.997Z,3.00
2018-07-09T08:15:56.489Z,3.00
2018-07-09T08:18:25.042Z,2.97
2018-07-09T08:20:53.269Z,3.10
2018-07-09T08:23:21.560Z,3.00
2018-07-09T08:25:49.998Z,3.30
2018-07-09T08:28:18.478Z,3.13
2018-07-09T08:30:46.807Z,2.83
2018-07-09T08:33:15.139Z,3.30
2018-07-09T08:35:43.504Z,16.43
2018-07-09T08:38:12.849Z,9.60
2018-07-09T08:40:41.170Z,8.67
2018-07-09T08:43:09.516Z,9.77
2018-07-09T08:45:37.827Z,8.67
2018-07-09T08:48:06.254Z,7.97
2018-07-09T08:50:34.605Z,7.07
2018-07-09T08:53:02.907Z,6.30
2018-07-09T08:55:31.204Z,6.40
2018-07-09T08:57:59.504Z,6.20
2018-07-09T09:00:27.831Z,5.93
2018-07-09T09:02:56.178Z,6.00
2018-07-09T09:05:24.281Z,12.47
2018-07-09T09:07:52.603Z,13.00
2018-07-09T09:10:21.088Z,13.00
2018-07-09T09:12:49.352Z,20.37
2018-07-09T09:15:17.682Z,19.13
2018-07-09T09:17:46.107Z,19.07
2018-07-09T09:20:14.459Z,15.43
2018-07-09T09:22:42.769Z,14.13
2018-07-09T09:25:11.291Z,13.57
2018-07-09T09:27:39.603Z,12.87
2018-07-09T09:30:07.918Z,11.70
2018-07-09T09:32:36.268Z,12.07
2018-07-09T09:35:04.613Z,11.43
2018-07-09T09:37:32.701Z,11.20
2018-07-09T09:40:01.085Z,11.30
2018-07-09T09:42:29.401Z,10.30
2018-07-09T09:44:57.706Z,9.47
2018-07-09T09:47:25.785Z,9.67
2018-07-09T09:49:54.090Z,8.77
2018-07-09T09:52:22.567Z,10.30
2018-07-09T09:54:50.933Z,11.33
2018-07-09T09:57:19.255Z,13.67
2018-07-09T09:59:47.583Z,10.70
2018-07-09T10:02:15.928Z,10.27
2018-07-09T10:04:44.304Z,9.13
2018-07-09T10:07:12.635Z,9.40
2018-07-09T10:09:41.043Z,9.47
2018-07-09T10:12:09.400Z,10.17
2018-07-09T10:14:37.771Z,10.30
2018-07-09T10:17:06.135Z,9.70
2018-07-09T10:19:34.427Z,9.97
2018-07-09T10:22:02.745Z,10.10
2018-07-09T10:24:31.052Z,9.60
2018-07-09T10:26:59.362Z,9.03
2018-07-09T10:29:27.667Z,9.43
2018-07-09T10:31:56.167Z,9.17
2018-07-09T10:34:24.471Z,8.43
2018-07-09T10:36:52.779Z,8.50
2018-07-09T10:39:21.100Z,9.47
2018-07-09T10:41:49.451Z,9.67
2018-07-09T10:44:17.761Z,10.87
2018-07-09T10:46:46.069Z,8.50
2018-07-09T10:49:14.387Z,8.47
2018-07-09T10:51:42.705Z,8.13
2018-07-09T10:54:11.038Z,8.20
2018-07-09T10:56:39.433Z,8.43
2018-07-09T10:59:07.784Z,7.73
2018-07-09T11:01:36.152Z,6.93
2018-07-09T11:04:04.469Z,7.73
2018-07-09T11:06:32.770Z,7.63
2018-07-09T11:09:01.250Z,7.10
2018-07-09T11:11:29.562Z,7.33
2018-07-09T11:13:57.860Z,7.03
2018-07-09T11:16:26.186Z,6.87
2018-07-09T11:18:54.220Z,6.77
2018-07-09T11:21:22.528Z,6.53
2018-07-09T11:23:50.878Z,5.80
2018-07-09T11:26:19.204Z,6.33
2018-07-09T11:28:47.550Z,6.43
2018-07-09T11:31:15.994Z,7.50
2018-07-09T11:33:44.387Z,11.80
2018-07-09T11:36:12.464Z,11.47
2018-07-09T11:38:40.778Z,19.10
2018-07-09T11:41:09.158Z,14.40
2018-07-09T11:43:37.486Z,13.93
2018-07-09T11:46:05.815Z,12.03
2018-07-09T11:48:34.125Z,11.90
2018-07-09T11:51:02.491Z,11.77
2018-07-09T11:53:30.833Z,10.90
2018-07-09T11:55:59.163Z,10.87
2018-07-09T11:58:27.515Z,10.47
2018-07-09T12:00:55.879Z,8.67
2018-07-09T12:03:24.215Z,9.77
2018-07-09T12:05:52.544Z,10.37
2018-07-09T12:08:20.855Z,19.20
2018-07-09T12:10:49.166Z,17.33
2018-07-09T12:13:17.495Z,18.70
2018-07-09T12:15:45.790Z,17.90
2018-07-09T12:18:14.115Z,15.13
2018-07-09T12:20:42.454Z,14.87
2018-07-09T12:23:10.793Z,13.03
2018-07-09T12:25:39.122Z,14.00
2018-07-09T12:28:07.269Z,11.80
2018-07-09T12:30:35.608Z,11.20
2018-07-09T12:33:03.930Z,10.80
2018-07-09T12:35:32.498Z,11.60
2018-07-09T12:38:00.834Z,10.87
2018-07-09T12:40:29.174Z,11.20
2018-07-09T12:42:57.294Z,10.43
2018-07-09T12:45:25.739Z,10.23
2018-07-09T12:47:54.419Z,9.50
2018-07-09T12:50:22.742Z,9.73
2018-07-09T12:52:51.066Z,9.20
2018-07-09T12:55:19.372Z,8.67
2018-07-09T12:57:47.668Z,9.80
2018-07-09T13:00:15.992Z,8.23
2018-07-09T13:02:44.337Z,8.20
2018-07-09T13:05:12.667Z,8.33
2018-07-09T13:07:40.710Z,8.53
2018-07-09T13:10:09.040Z,13.23
2018-07-09T13:12:37.339Z,13.90
2018-07-09T13:15:05.955Z,13.13
2018-07-09T13:17:34.287Z,14.50
2018-07-09T13:20:02.612Z,14.00
2018-07-09T13:22:31.016Z,10.43
2018-07-09T13:24:59.091Z,10.37
2018-07-09T13:27:27.430Z,8.83
2018-07-09T13:29:55.780Z,8.80
2018-07-09T13:32:24.091Z,8.03
2018-07-09T13:34:52.675Z,8.17
2018-07-09T13:37:20.974Z,20.70
2018-07-09T13:39:49.298Z,13.40
2018-07-09T13:42:17.630Z,10.50
2018-07-09T13:44:46.039Z,10.60
2018-07-09T13:47:14.402Z,8.90
2018-07-09T13:49:42.598Z,8.20
2018-07-09T13:52:10.903Z,8.13
2018-07-09T13:54:39.355Z,7.70
2018-07-09T13:57:07.727Z,13.37
2018-07-09T13:59:36.182Z,14.30
2018-07-09T14:02:04.586Z,16.27
2018-07-09T14:04:32.919Z,9.83
2018-07-09T14:07:01.267Z,15.70
2018-07-09T14:09:29.575Z,19.30
2018-07-09T14:11:57.922Z,10.33
2018-07-09T14:14:26.247Z,11.87
2018-07-09T14:16:54.558Z,10.40
2018-07-09T14:20:34.916Z,10.27
2018-07-09T14:23:03.756Z,10.70
2018-07-09T14:25:32.067Z,9.83
2018-07-09T14:28:00.148Z,8.80
2018-07-09T14:30:28.221Z,8.47
2018-07-09T14:32:56.544Z,9.27
2018-07-09T14:35:24.850Z,7.83
2018-07-09T14:37:53.170Z,7.77
2018-07-09T14:40:21.499Z,6.93
2018-07-09T14:42:49.851Z,6.90
2018-07-09T14:45:18.164Z,6.70
2018-07-09T14:47:46.524Z,6.13
2018-07-09T14:50:14.879Z,6.23
2018-07-09T14:52:43.203Z,5.93
2018-07-09T14:55:11.534Z,5.97
2018-07-09T14:57:39.898Z,5.97
2018-07-09T15:00:08.213Z,5.80
2018-07-09T15:02:36.542Z,4.77
2018-07-09T15:05:04.909Z,4.83
2018-07-09T15:07:33.375Z,4.57
2018-07-09T15:10:01.467Z,5.30
2018-07-09T15:12:29.798Z,5.10
2018-07-09T15:14:58.133Z,4.83
2018-07-09T15:17:26.472Z,4.83
2018-07-09T15:19:54.786Z,4.50
2018-07-09T15:22:23.172Z,4.40
2018-07-09T15:24:51.519Z,4.17
2018-07-09T15:27:19.833Z,4.40
2018-07-09T15:29:48.168Z,6.13
2018-07-09T15:32:24.907Z,6.67
2018-07-09T15:34:53.306Z,7.43
2018-07-09T15:37:21.668Z,7.37
2018-07-09T15:39:50.015Z,4.43
2018-07-09T15:42:18.334Z,4.10
2018-07-09T15:44:46.667Z,3.20
2018-07-09T15:47:15.158Z,3.17
2018-07-09T15:49:43.614Z,3.40
2018-07-09T15:52:12.288Z,3.30
2018-07-09T15:54:40.351Z,3.10
2018-07-09T15:57:08.660Z,3.13
2018-07-09T15:59:37.086Z,4.60
2018-07-09T16:02:05.453Z,6.90
2018-07-09T16:04:33.789Z,6.77
2018-07-09T16:07:02.083Z,9.03
2018-07-09T16:09:30.430Z,5.83
2018-07-09T16:11:58.800Z,5.47
2018-07-09T16:14:27.123Z,8.00
2018-07-09T16:16:55.484Z,8.83
2018-07-09T16:19:23.849Z,6.30
2018-07-09T16:21:52.161Z,5.33
2018-07-09T16:24:20.455Z,5.47
2018-07-09T16:26:48.772Z,9.73
2018-07-09T16:29:17.211Z,13.80
2018-07-09T16:31:45.639Z,6.83
2018-07-09T16:34:13.947Z,5.57
2018-07-09T16:36:42.356Z,4.70
2018-07-09T16:39:10.710Z,5.10
2018-07-09T16:41:39.099Z,5.30
2018-07-09T16:44:08.058Z,4.27
2018-07-09T16:46:36.608Z,3.20
2018-07-09T16:49:04.979Z,3.67
2018-07-09T16:51:33.295Z,3.27
2018-07-09T16:54:01.830Z,3.50
2018-07-09T16:56:30.109Z,3.23
2018-07-09T16:58:58.476Z,3.30
2018-07-09T17:01:26.900Z,3.67
2018-07-09T17:03:55.261Z,3.07
2018-07-09T17:06:23.583Z,3.20
2018-07-09T17:08:51.991Z,3.23
2018-07-09T17:11:20.366Z,3.57
2018-07-09T17:13:48.948Z,2.53
2018-07-09T17:16:17.312Z,2.70
2018-07-09T17:18:45.690Z,2.93
2018-07-09T17:21:14.102Z,3.83
2018-07-09T17:23:42.529Z,4.13
2018-07-09T17:26:10.920Z,5.10
2018-07-09T17:28:39.333Z,2.90
2018-07-09T17:31:07.732Z,2.80
2018-07-09T17:33:36.064Z,2.00
2018-07-09T17:36:04.481Z,2.00
2018-07-09T17:38:32.847Z,1.60
2018-07-09T17:41:01.275Z,1.30
2018-07-09T17:43:29.592Z,1.60
2018-07-09T17:45:57.935Z,1.57
2018-07-09T17:48:26.285Z,1.40
2018-07-09T17:50:54.376Z,1.40
2018-07-09T17:53:22.476Z,10.70
2018-07-09T17:55:50.883Z,13.07
2018-07-09T17:58:19.194Z,10.73
2018-07-09T18:00:47.593Z,7.63
2018-07-09T18:03:15.928Z,6.67
2018-07-09T18:05:44.278Z,3.27
2018-07-09T18:08:12.646Z,3.67
2018-07-09T18:10:41.106Z,2.83
2018-07-09T18:13:09.358Z,2.60
2018-07-09T18:15:38.155Z,2.07
2018-07-09T18:18:06.472Z,2.07
2018-07-09T18:20:34.839Z,4.07
2018-07-09T18:23:03.192Z,4.43
2018-07-09T18:25:31.562Z,3.80
2018-07-09T18:27:59.922Z,3.80
2018-07-09T18:30:28.301Z,2.90
2018-07-09T18:32:56.849Z,2.07
2018-07-09T18:35:25.177Z,1.67
2018-07-09T18:37:53.493Z,2.00
2018-07-09T18:40:21.828Z,2.00
2018-07-09T18:42:50.195Z,2.47
2018-07-09T18:45:18.556Z,2.00
2018-07-09T18:47:46.924Z,3.70
2018-07-09T18:50:15.267Z,12.47
2018-07-09T18:52:43.642Z,7.60
2018-07-09T18:55:11.991Z,6.13
2018-07-09T18:57:40.097Z,4.43
2018-07-09T19:00:08.435Z,3.07
2018-07-09T19:02:36.796Z,3.10
2018-07-09T19:05:05.153Z,2.23
2018-07-09T19:07:33.556Z,2.90
2018-07-09T19:10:01.971Z,2.60
2018-07-09T19:12:34.160Z,2.80
2018-07-09T19:15:03.717Z,2.93
2018-07-09T19:18:11.013Z,4.23
2018-07-09T19:21:22.027Z,4.23
2018-07-09T19:23:49.432Z,3.87
2018-07-09T19:26:16.726Z,4.13
2018-07-09T19:28:44.040Z,3.37
2018-07-09T19:31:11.434Z,4.33
2018-07-09T19:33:39.475Z,4.37
2018-07-09T19:36:07.256Z,6.13
2018-07-09T19:38:34.817Z,6.07
2018-07-09T19:41:02.213Z,6.13
2018-07-09T19:43:29.534Z,6.43
2018-07-09T19:45:57.008Z,6.03
2018-07-09T19:48:24.659Z,5.40
2018-07-09T19:50:52.004Z,6.50
2018-07-09T19:53:19.274Z,5.47
2018-07-09T19:55:46.596Z,12.50
2018-07-09T19:58:13.929Z,12.23
2018-07-09T20:00:41.622Z,10.87
2018-07-09T20:03:09.513Z,10.93
2018-07-09T20:05:36.832Z,8.83
2018-07-09T20:08:04.901Z,7.90
2018-07-09T20:10:37.736Z,7.90
2018-07-09T20:13:09.717Z,7.67
2018-07-09T20:15:42.402Z,6.60
2018-07-09T20:18:09.764Z,6.53
2018-07-09T20:20:37.065Z,6.30
2018-07-09T20:23:04.658Z,6.00
2018-07-09T20:25:31.980Z,5.57
2018-07-09T20:27:59.291Z,5.53
2018-07-09T20:30:26.613Z,5.77
2018-07-09T20:32:54.023Z,4.83
2018-07-09T20:35:21.306Z,8.63
2018-07-09T20:37:48.630Z,26.27
2018-07-09T20:40:16.136Z,10.20
2018-07-09T20:42:43.439Z,11.73
2018-07-09T20:45:10.732Z,19.70
2018-07-09T20:47:38.061Z,19.33
2018-07-09T20:50:05.387Z,16.87
2018-07-09T20:52:32.731Z,19.37
2018-07-09T20:55:00.066Z,18.47
2018-07-09T20:57:27.362Z,18.60
2018-07-09T20:59:54.638Z,18.03
2018-07-09T21:02:22.178Z,18.00
2018-07-09T21:04:49.496Z,18.20
2018-07-09T21:07:16.756Z,19.07
2018-07-09T21:09:44.104Z,18.60
2018-07-09T21:12:11.497Z,18.90
2018-07-09T21:14:38.811Z,16.70
2018-07-09T21:17:06.303Z,17.97
2018-07-09T21:19:33.599Z,16.83
2018-07-09T21:22:01.165Z,20.37
2018-07-09T21:24:28.496Z,20.13
2018-07-09T21:26:55.860Z,18.97
2018-07-09T21:29:23.478Z,17.90
2018-07-09T21:31:50.760Z,16.67
2018-07-09T21:34:18.299Z,16.07
2018-07-09T21:36:45.612Z,15.43
2018-07-09T21:39:12.918Z,15.20
2018-07-09T21:41:40.320Z,16.53
2018-07-09T21:44:07.880Z,46.90
2018-07-09T21:46:35.213Z,36.87
2018-07-09T21:49:02.519Z,37.70
2018-07-09T21:51:29.871Z,35.10
2018-07-09T21:53:57.174Z,37.93
2018-07-09T21:56:24.540Z,33.00
2018-07-09T21:58:51.823Z,32.97
2018-07-09T22:01:19.181Z,33.80
2018-07-09T22:03:46.584Z,32.63
2018-07-09T22:06:13.862Z,31.70
2018-07-09T22:08:41.183Z,33.93
2018-07-09T22:11:08.518Z,30.40
2018-07-09T22:13:35.945Z,30.47
2018-07-09T22:16:03.242Z,31.00
2018-07-09T22:18:30.566Z,30.43
2018-07-09T22:20:57.900Z,30.97
2018-07-09T22:23:25.287Z,28.13
2018-07-09T22:25:52.569Z,29.60
2018-07-09T22:28:20.211Z,31.43
2018-07-09T22:30:48.727Z,29.40
2018-07-09T22:33:17.074Z,29.37
2018-07-09T22:35:45.390Z,28.90
2018-07-09T22:38:13.708Z,27.10
2018-07-09T22:40:42.067Z,26.67
2018-07-09T22:43:21.895Z,26.73
2018-07-09T22:45:50.220Z,25.70
2018-07-09T22:48:18.560Z,26.40
2018-07-09T22:50:46.877Z,23.93
2018-07-09T22:53:15.183Z,22.43
2018-07-09T22:55:54.896Z,19.60
2018-07-09T22:58:23.232Z,17.27
2018-07-09T23:00:51.581Z,14.13
2018-07-09T23:03:19.930Z,14.07
2018-07-09T23:05:48.282Z,14.27
2018-07-09T23:08:16.637Z,12.03
2018-07-09T23:11:21.946Z,12.73
2018-07-09T23:16:14.319Z,13.60
2018-07-09T23:19:05.077Z,12.30
2018-07-09T23:21:45.288Z,11.73
2018-07-09T23:24:13.472Z,9.93
2018-07-09T23:26:41.113Z,9.00
2018-07-09T23:29:08.424Z,9.60
2018-07-09T23:31:35.785Z,8.20
2018-07-09T23:34:03.060Z,7.87
2018-07-09T23:36:30.358Z,7.23
2018-07-09T23:38:57.694Z,7.27
2018-07-09T23:41:25.016Z,7.47
2018-07-09T23:43:52.324Z,5.93
2018-07-09T23:46:19.629Z,5.60
2018-07-09T23:48:46.927Z,5.57
2018-07-09T23:51:14.262Z,4.70
2018-07-09T23:53:41.556Z,4.87
2018-07-09T23:58:30.591Z,4.53
